Time;durP1;ratioP1;P1;durP2;ratioP2;P2;SDS_P1;SDS_P2;PMS_P1;PMS_P2;Temp;Humidity;BMP_temperature;BMP_pressure;BME280_temperature;BME280_humidity;BME280_pressure;Samples;Min_cycle;Max_cycle;Signal;HPM_P1;HPM_P2
2021/05/23 00:01:09;;;;;;;1.92;1.35;;;;;;;7.65;70.98;99979.69;5015448;28;20025;-85
2021/05/23 00:03:35;;;;;;;4.50;1.38;;;;;;;7.61;71.33;99967.66;5017173;28;20100;-82
2021/05/23 00:06:01;;;;;;;2.58;1.48;;;;;;;7.55;71.21;99960.34;5037665;28;20056;-84
2021/05/23 00:08:27;;;;;;;2.50;1.02;;;;;;;7.40;70.66;99928.13;5019185;28;20397;-83
2021/05/23 00:11:07;;;;;;;5.30;1.40;;;;;;;7.58;70.65;99951.97;5011816;28;20075;-84
2021/05/23 00:13:37;;;;;;;2.28;1.20;;;;;;;7.56;71.03;99959.31;5013413;28;20037;-86
2021/05/23 00:16:05;;;;;;;5.88;1.30;;;;;;;7.59;71.02;99948.25;5013207;28;20129;-84
2021/05/23 00:18:33;;;;;;;5.20;1.42;;;;;;;7.34;70.97;99904.78;5002946;28;20083;-84
2021/05/23 00:20:59;;;;;;;4.70;1.25;;;;;;;7.56;71.31;99940.59;5012873;28;20029;-85
2021/05/23 00:23:24;;;;;;;4.63;1.50;;;;;;;7.55;71.47;99930.91;5013077;28;20520;-83
2021/05/23 00:25:51;;;;;;;6.15;1.40;;;;;;;7.58;71.54;99924.38;5031442;28;20033;-82
2021/05/23 00:28:16;;;;;;;3.20;1.10;;;;;;;7.60;71.70;99928.53;5026832;28;20419;-85
2021/05/23 00:30:42;;;;;;;3.08;1.30;;;;;;;7.60;71.67;99931.22;5018808;28;20108;-85
2021/05/23 00:33:08;;;;;;;3.08;1.38;;;;;;;7.57;71.83;99926.22;5017171;28;20689;-85
2021/05/23 00:35:35;;;;;;;8.05;1.40;;;;;;;7.63;71.83;99930.03;5026481;28;20025;-82
2021/05/23 00:38:00;;;;;;;3.30;1.20;;;;;;;7.59;71.95;99904.63;5013305;28;20052;-85
2021/05/23 00:40:26;;;;;;;3.83;0.93;;;;;;;7.57;72.07;99904.81;5030585;28;20030;-84
2021/05/23 00:42:51;;;;;;;4.15;1.30;;;;;;;7.59;72.04;99904.63;5035157;28;20033;-83
2021/05/23 00:45:18;;;;;;;4.95;1.40;;;;;;;7.56;71.80;99905.00;5036526;28;20639;-85
2021/05/23 00:47:44;;;;;;;3.65;1.10;;;;;;;7.56;71.62;99905.00;5033021;28;20029;-84
2021/05/23 00:50:11;;;;;;;2.45;1.20;;;;;;;7.54;71.96;99893.63;5032613;28;20112;-85
2021/05/23 00:52:38;;;;;;;4.50;1.27;;;;;;;7.30;72.50;99855.31;5029448;28;20033;-84
2021/05/23 00:55:04;;;;;;;5.68;1.48;;;;;;;7.41;73.20;99884.34;5030931;28;20033;-85
2021/05/23 00:57:30;;;;;;;4.30;1.27;;;;;;;7.43;73.44;99882.31;5016214;28;20033;-84
2021/05/23 00:59:55;;;;;;;5.97;1.30;;;;;;;7.31;73.95;99873.06;5014684;28;20034;-84
2021/05/23 01:02:40;;;;;;;2.50;1.02;;;;;;;7.40;74.86;99877.31;5009733;28;20172;-84
2021/05/23 01:05:06;;;;;;;6.28;1.23;;;;;;;7.36;75.19;99880.56;5033069;28;20026;-85
2021/05/23 01:07:32;;;;;;;2.08;1.25;;;;;;;7.31;75.69;99862.34;5028885;28;20079;-84
2021/05/23 01:10:08;;;;;;;2.83;1.40;;;;;;;7.22;75.64;99856.22;5015412;28;20025;-84
2021/05/23 01:12:52;;;;;;;3.05;1.10;;;;;;;7.23;76.93;99852.53;5014302;28;20163;-84
2021/05/23 01:15:25;;;;;;;1.25;0.90;;;;;;;7.15;76.55;99833.03;5030270;28;20064;-83
2021/05/23 01:17:50;;;;;;;6.13;1.38;;;;;;;7.15;76.66;99827.69;5018406;28;20032;-84
2021/05/23 01:20:25;;;;;;;3.90;1.10;;;;;;;7.19;76.69;99837.84;5029005;28;20037;-83
2021/05/23 01:23:10;;;;;;;2.72;1.17;;;;;;;7.13;76.50;99819.03;5030187;28;20750;-83
2021/05/23 01:25:39;;;;;;;3.33;1.20;;;;;;;7.07;76.68;99801.03;5027232;28;20064;-85
2021/05/23 01:28:06;;;;;;;1.65;1.00;;;;;;;7.20;76.58;99817.31;5016822;28;20017;-83
2021/05/23 01:30:32;;;;;;;5.32;1.80;;;;;;;7.19;77.09;99813.78;5017696;28;20029;-83
2021/05/23 01:32:59;;;;;;;1.17;0.95;;;;;;;7.15;76.90;99790.28;5029198;28;20025;-84
2021/05/23 01:35:31;;;;;;;5.53;1.67;;;;;;;7.17;77.09;99772.19;5027572;28;20053;-83
2021/05/23 01:38:01;;;;;;;3.05;1.30;;;;;;;7.22;77.48;99767.16;5033685;28;20112;-84
2021/05/23 01:40:29;;;;;;;5.28;1.17;;;;;;;7.09;77.73;99735.66;5031779;28;20400;-85
2021/05/23 01:42:55;;;;;;;4.68;1.20;;;;;;;6.90;77.92;99696.03;5030792;28;20025;-85
2021/05/23 01:45:21;;;;;;;1.77;0.90;;;;;;;7.14;77.86;99729.78;5015284;28;20472;-85
2021/05/23 01:47:46;;;;;;;4.15;1.48;;;;;;;7.17;78.07;99724.94;5014342;28;20045;-84
2021/05/23 01:50:13;;;;;;;4.18;1.40;;;;;;;7.21;78.13;99723.53;5031162;28;20041;-83
2021/05/23 01:52:49;;;;;;;1.50;0.90;;;;;;;7.28;78.26;99712.97;5014808;28;20510;-85
2021/05/23 01:55:15;;;;;;;2.13;1.20;;;;;;;7.31;78.41;99720.63;5032825;28;20791;-84
2021/05/23 01:57:42;;;;;;;5.00;1.27;;;;;;;7.34;77.77;99727.47;5017739;28;20033;-81
2021/05/23 02:00:08;;;;;;;4.85;1.13;;;;;;;7.30;78.17;99700.22;5012615;28;20037;-84
2021/05/23 02:02:33;;;;;;;2.75;0.90;;;;;;;7.31;78.09;99693.06;5014203;28;20045;-84
2021/05/23 02:04:59;;;;;;;2.88;1.23;;;;;;;7.42;78.11;99704.16;5015816;28;20026;-84
2021/05/23 02:07:24;;;;;;;2.28;0.93;;;;;;;7.09;78.56;99644.78;5017272;28;20362;-82
2021/05/23 02:09:50;;;;;;;2.72;1.45;;;;;;;7.36;78.90;99674.63;5029529;28;20476;-84
2021/05/23 02:12:15;;;;;;;1.92;1.00;;;;;;;7.33;79.14;99675.81;5031217;28;20026;-83
2021/05/23 02:14:40;;;;;;;6.00;1.40;;;;;;;7.38;79.40;99675.25;5033274;28;20025;-84
2021/05/23 02:17:06;;;;;;;6.15;2.58;;;;;;;7.28;79.50;99659.50;5030948;28;20030;-84
2021/05/23 02:19:31;;;;;;;4.80;1.67;;;;;;;7.16;79.93;99644.88;5013243;28;20477;-84
2021/05/23 02:21:56;;;;;;;10.82;3.20;;;;;;;7.15;80.46;99627.22;5020263;28;20029;-83
2021/05/23 02:24:22;;;;;;;7.35;2.15;;;;;;;7.35;80.23;99657.72;5029015;28;20017;-83
2021/05/23 02:26:47;;;;;;;3.72;2.08;;;;;;;7.32;80.85;99654.59;5021753;28;20092;-84
2021/05/23 02:29:13;;;;;;;5.50;1.55;;;;;;;7.30;80.49;99640.59;5013134;28;20052;-83
2021/05/23 02:31:39;;;;;;;16.58;5.35;;;;;;;7.25;80.81;99623.25;5031416;28;20025;-83
2021/05/23 02:34:05;;;;;;;7.72;2.05;;;;;;;7.36;80.50;99621.97;5015520;28;20018;-84
2021/05/23 02:36:31;;;;;;;24.77;9.48;;;;;;;7.31;80.81;99602.16;5009619;28;20037;-82
2021/05/23 02:38:56;;;;;;;6.35;3.20;;;;;;;7.34;80.38;99599.94;5024434;28;20615;-85
2021/05/23 02:41:21;;;;;;;6.07;3.28;;;;;;;7.40;80.66;99595.69;5016035;28;20025;-83
2021/05/23 02:43:47;;;;;;;2.75;1.08;;;;;;;7.37;80.25;99583.50;5031098;28;20033;-84
2021/05/23 02:46:12;;;;;;;4.82;1.67;;;;;;;7.46;80.29;99590.44;5015991;28;20079;-85
2021/05/23 02:48:38;;;;;;;6.45;1.63;;;;;;;7.44;80.31;99570.25;5021850;28;20021;-84
2021/05/23 02:51:03;;;;;;;2.95;1.13;;;;;;;7.44;80.30;99567.56;5016605;28;20032;-84
2021/05/23 02:53:30;;;;;;;5.05;1.35;;;;;;;7.47;80.46;99568.03;5029850;28;20381;-84
2021/05/23 02:55:55;;;;;;;5.55;1.65;;;;;;;7.36;80.44;99531.06;5020404;28;20054;-84
2021/05/23 02:58:21;;;;;;;3.55;0.90;;;;;;;7.45;80.48;99540.63;5026999;28;20474;-84
2021/05/23 03:00:47;;;;;;;5.20;1.40;;;;;;;7.49;81.26;99547.28;5011074;28;20034;-84
2021/05/23 03:03:13;;;;;;;6.63;1.30;;;;;;;7.45;81.29;99527.25;5012841;28;20401;-85
2021/05/23 03:05:40;;;;;;;1.67;1.05;;;;;;;7.45;81.06;99513.88;5010758;28;20508;-84
2021/05/23 03:08:05;;;;;;;4.97;1.65;;;;;;;7.42;81.07;99511.59;5006759;28;20101;-83
2021/05/23 03:10:32;;;;;;;1.83;1.02;;;;;;;7.55;81.08;99515.47;5025329;28;20024;-84
2021/05/23 03:12:59;;;;;;;5.47;1.55;;;;;;;7.56;81.22;99501.06;5029836;28;20010;-84
2021/05/23 03:15:26;;;;;;;6.88;1.90;;;;;;;7.52;81.37;99489.91;5021044;28;20044;-84
2021/05/23 03:17:53;;;;;;;3.22;1.10;;;;;;;7.57;81.42;99483.97;5012826;28;20056;-85
2021/05/23 03:20:19;;;;;;;3.70;1.27;;;;;;;7.49;81.81;99468.91;5029961;28;20048;-85
2021/05/23 03:22:46;;;;;;;7.35;1.33;;;;;;;7.58;81.72;99464.25;5032259;28;20026;-83
2021/05/23 03:25:13;;;;;;;6.40;1.98;;;;;;;7.55;81.77;99445.91;5014113;28;20064;-85
2021/05/23 03:27:39;;;;;;;4.55;1.60;;;;;;;7.56;81.73;99444.88;5002374;28;20025;-85
2021/05/23 03:30:09;;;;;;;2.65;1.60;;;;;;;7.58;82.08;99441.00;5012858;28;20036;-83
2021/05/23 03:32:35;;;;;;;7.38;2.08;;;;;;;7.57;81.93;99443.84;5030462;28;20028;-83
2021/05/23 03:35:00;;;;;;;8.77;1.55;;;;;;;7.55;82.59;99427.19;5014352;28;20034;-84
2021/05/23 03:37:26;;;;;;;7.40;1.98;;;;;;;7.55;82.34;99421.84;5013474;28;20480;-83
2021/05/23 03:39:51;;;;;;;3.53;1.10;;;;;;;7.59;82.44;99420.44;5010583;28;20034;-83
2021/05/23 03:42:16;;;;;;;2.42;1.02;;;;;;;7.55;82.75;99403.94;5018568;28;20040;-84
2021/05/23 03:44:42;;;;;;;2.83;1.33;;;;;;;7.39;82.93;99372.09;5012758;28;20204;-84
2021/05/23 03:47:07;;;;;;;5.05;1.10;;;;;;;7.48;82.95;99397.69;5029353;28;20021;-84
2021/05/23 03:49:37;;;;;;;3.78;1.23;;;;;;;7.47;83.36;99393.34;5021699;28;20500;-83
2021/05/23 03:52:09;;;;;;;5.50;1.15;;;;;;;7.44;83.82;99381.19;5025571;28;20025;-84
2021/05/23 03:54:35;;;;;;;2.88;1.20;;;;;;;7.44;84.13;99372.34;5008167;28;20072;-82
2021/05/23 03:57:01;;;;;;;3.03;1.10;;;;;;;7.42;84.70;99369.84;5010842;28;20048;-82
2021/05/23 03:59:27;;;;;;;3.72;1.42;;;;;;;7.29;84.51;99352.84;5011689;28;20364;-82
2021/05/23 04:01:52;;;;;;;5.30;2.05;;;;;;;7.37;84.37;99347.38;5027417;28;20495;-84
2021/05/23 04:04:20;;;;;;;3.70;1.48;;;;;;;7.40;84.71;99353.16;5012229;28;20036;-83
2021/05/23 04:06:46;;;;;;;5.05;1.75;;;;;;;7.45;84.93;99364.13;5012105;28;20031;-83
2021/05/23 04:09:12;;;;;;;2.20;1.10;;;;;;;7.39;84.61;99334.66;5013142;28;20017;-83
2021/05/23 04:11:41;;;;;;;2.20;1.17;;;;;;;7.41;84.07;99353.97;5009758;28;20045;-84
2021/05/23 04:14:06;;;;;;;3.63;1.10;;;;;;;7.44;84.19;99333.06;5026312;28;20029;-84
2021/05/23 04:16:33;;;;;;;3.58;1.50;;;;;;;7.44;83.94;99335.72;5023030;28;20484;-84
2021/05/23 04:18:59;;;;;;;4.07;1.52;;;;;;;7.49;84.02;99337.84;5024099;28;20064;-83
2021/05/23 04:21:24;;;;;;;2.85;1.50;;;;;;;7.47;84.16;99321.97;5025729;28;20049;-84
2021/05/23 04:23:49;;;;;;;4.35;1.48;;;;;;;7.32;83.83;99285.63;5009588;28;20392;-84
2021/05/23 04:26:15;;;;;;;7.88;1.42;;;;;;;7.48;83.70;99310.25;5011618;28;20053;-85
2021/05/23 04:28:40;;;;;;;5.35;1.50;;;;;;;7.52;83.94;99302.69;5012286;28;20054;-82
2021/05/23 04:31:06;;;;;;;6.00;1.17;;;;;;;7.53;83.97;99295.47;5006778;28;20025;-85
2021/05/23 04:33:31;;;;;;;6.00;1.85;;;;;;;7.29;84.08;99259.25;5025714;28;20392;-84
2021/05/23 04:35:57;;;;;;;5.43;1.38;;;;;;;7.49;84.75;99289.69;5023014;28;20032;-83
2021/05/23 04:38:22;;;;;;;1.98;1.13;;;;;;;7.44;85.35;99290.25;5024442;28;20112;-82
2021/05/23 04:40:47;;;;;;;2.85;1.20;;;;;;;7.44;85.46;99286.78;5007610;28;20108;-82
2021/05/23 04:43:13;;;;;;;4.95;1.30;;;;;;;7.43;86.60;99291.25;5013552;28;20113;-83
2021/05/23 04:45:39;;;;;;;6.75;1.98;;;;;;;7.46;85.71;99288.22;5014326;28;20022;-84
2021/05/23 04:48:05;;;;;;;3.38;1.70;;;;;;;7.39;86.62;99273.16;5026074;28;20084;-84
2021/05/23 04:50:30;;;;;;;5.50;2.10;;;;;;;7.38;86.71;99269.66;5019856;28;20034;-84
2021/05/23 04:52:56;;;;;;;4.95;1.38;;;;;;;7.41;86.96;99279.09;5012558;28;20017;-84
2021/05/23 04:55:21;;;;;;;5.32;1.30;;;;;;;7.42;87.35;99276.25;5020547;28;20029;-83
2021/05/23 04:57:47;;;;;;;4.50;1.42;;;;;;;7.47;87.73;99297.09;5031942;28;20025;-84
2021/05/23 05:00:13;;;;;;;3.88;2.33;;;;;;;7.42;87.68;99270.91;5011214;28;20091;-83
2021/05/23 05:02:41;;;;;;;2.45;1.20;;;;;;;7.47;88.18;99249.75;5009473;28;20033;-83
2021/05/23 05:05:08;;;;;;;4.38;2.08;;;;;;;7.43;88.35;99256.50;5019087;28;20034;-84
2021/05/23 05:07:33;;;;;;;2.65;1.20;;;;;;;7.29;88.21;99245.91;5022590;28;20049;-84
2021/05/23 05:09:59;;;;;;;3.65;1.45;;;;;;;7.23;87.24;99299.09;5009998;28;20052;-82
2021/05/23 05:12:24;;;;;;;2.92;1.40;;;;;;;7.08;85.89;99316.22;5020576;28;20504;-82
2021/05/23 05:14:50;;;;;;;6.18;1.48;;;;;;;6.86;85.80;99283.28;5014660;28;20029;-82
2021/05/23 05:17:15;;;;;;;4.72;1.40;;;;;;;6.76;85.63;99284.41;5029020;28;20844;-84
2021/05/23 05:19:40;;;;;;;3.85;1.60;;;;;;;6.69;85.33;99310.19;5023708;28;20022;-84
2021/05/23 05:22:06;;;;;;;3.97;1.40;;;;;;;6.63;86.05;99313.63;5028801;28;20084;-82
2021/05/23 05:24:32;;;;;;;5.10;1.48;;;;;;;6.54;86.38;99299.53;5023426;28;20504;-84
2021/05/23 05:26:57;;;;;;;2.28;1.40;;;;;;;6.54;86.25;99299.53;5031269;28;20140;-85
2021/05/23 05:29:23;;;;;;;2.88;1.40;;;;;;;6.18;86.26;99231.91;5028977;28;20025;-84
2021/05/23 05:31:49;;;;;;;4.53;1.90;;;;;;;6.43;86.57;99270.66;5014827;28;20040;-83
2021/05/23 05:34:15;;;;;;;6.85;1.40;;;;;;;6.46;86.99;99269.44;5013010;28;20033;-83
2021/05/23 05:36:40;;;;;;;5.05;1.50;;;;;;;6.39;87.06;99270.16;5015432;28;20021;-84
2021/05/23 05:39:06;;;;;;;3.40;1.67;;;;;;;6.33;87.44;99254.91;5012037;28;20037;-84
2021/05/23 05:41:32;;;;;;;6.43;1.30;;;;;;;6.43;87.68;99275.13;5013025;28;20025;-83
2021/05/23 05:43:57;;;;;;;3.40;1.23;;;;;;;6.46;87.64;99254.25;5029992;28;20026;-85
2021/05/23 05:46:22;;;;;;;5.53;1.48;;;;;;;6.48;88.07;99251.38;5010592;28;20112;-84
2021/05/23 05:48:48;;;;;;;4.72;1.65;;;;;;;6.39;88.22;99234.63;5011119;28;20029;-83
2021/05/23 05:51:13;;;;;;;3.92;1.50;;;;;;;6.19;88.27;99207.69;5009662;28;20413;-83
2021/05/23 05:53:39;;;;;;;5.93;1.50;;;;;;;6.41;88.77;99223.78;5029639;28;20067;-84
2021/05/23 05:56:05;;;;;;;6.20;2.03;;;;;;;6.45;88.94;99215.19;5035690;28;20842;-84
2021/05/23 05:58:30;;;;;;;3.00;1.23;;;;;;;6.57;89.28;99226.25;5026966;28;20025;-84
2021/05/23 06:00:55;;;;;;;2.90;1.35;;;;;;;6.57;89.12;99218.22;5015054;28;20477;-84
2021/05/23 06:03:21;;;;;;;4.57;1.33;;;;;;;6.58;89.37;99206.50;5031729;28;20029;-83
2021/05/23 06:05:46;;;;;;;3.10;1.40;;;;;;;6.63;89.31;99205.97;5031484;28;20037;-84
2021/05/23 06:08:12;;;;;;;4.35;1.30;;;;;;;6.62;89.38;99188.28;5010413;28;20021;-84
2021/05/23 06:10:37;;;;;;;4.13;1.10;;;;;;;6.70;88.93;99201.53;5027974;28;20415;-84
2021/05/23 06:13:04;;;;;;;4.05;1.20;;;;;;;6.49;88.81;99172.94;5022530;28;20028;-84
2021/05/23 06:15:30;;;;;;;3.05;1.10;;;;;;;6.77;88.96;99210.41;5016983;28;20021;-83
2021/05/23 06:17:55;;;;;;;3.70;1.27;;;;;;;6.74;88.86;99194.78;5014757;28;20033;-84
2021/05/23 06:20:21;;;;;;;3.42;1.98;;;;;;;6.74;88.34;99192.09;5013959;28;20067;-82
2021/05/23 06:22:46;;;;;;;4.10;1.52;;;;;;;6.79;88.71;99195.03;5033370;28;20049;-84
2021/05/23 06:25:12;;;;;;;5.47;1.77;;;;;;;6.77;88.48;99197.06;5021808;28;20067;-85
2021/05/23 06:27:37;;;;;;;1.50;1.02;;;;;;;6.79;88.30;99203.03;5024409;28;20029;-85
2021/05/23 06:30:06;;;;;;;6.47;2.30;;;;;;;6.80;88.56;99194.84;5014971;28;20040;-83
2021/05/23 06:32:31;;;;;;;4.38;1.80;;;;;;;6.86;88.47;99205.81;5026686;28;20026;-85
2021/05/23 06:34:57;;;;;;;4.93;1.40;;;;;;;6.80;87.43;99200.19;5031523;28;20087;-84
2021/05/23 06:37:22;;;;;;;5.68;1.50;;;;;;;6.82;87.86;99190.13;5017710;28;20411;-83
2021/05/23 06:39:48;;;;;;;5.95;1.23;;;;;;;6.85;87.54;99194.25;5027153;28;20051;-81
2021/05/23 06:42:13;;;;;;;1.73;1.10;;;;;;;6.83;87.46;99185.63;5030337;28;20040;-84
2021/05/23 06:44:39;;;;;;;1.60;1.00;;;;;;;6.87;87.15;99186.91;5027463;28;20021;-81
2021/05/23 06:47:04;;;;;;;2.65;1.20;;;;;;;6.59;87.63;99142.25;5027516;28;20567;-84
2021/05/23 06:49:29;;;;;;;2.65;1.23;;;;;;;6.76;87.44;99185.56;5013204;28;20029;-84
2021/05/23 06:51:55;;;;;;;4.65;1.75;;;;;;;6.88;86.81;99199.25;5015913;28;20485;-83
2021/05/23 06:54:21;;;;;;;3.33;1.70;;;;;;;6.72;86.28;99186.13;5028927;28;20026;-84
2021/05/23 06:56:46;;;;;;;2.08;1.20;;;;;;;6.73;86.65;99198.47;5010637;28;20087;-84
2021/05/23 06:59:12;;;;;;;4.32;1.90;;;;;;;6.66;86.48;99206.41;5022196;28;20026;-84
2021/05/23 07:01:38;;;;;;;2.70;1.33;;;;;;;6.66;87.03;99224.28;5028080;28;20049;-84
2021/05/23 07:04:03;;;;;;;3.42;1.50;;;;;;;6.62;87.24;99225.69;5014151;28;20554;-83
2021/05/23 07:06:29;;;;;;;4.80;1.40;;;;;;;6.50;87.59;99209.31;5027715;28;20076;-82
2021/05/23 07:08:54;;;;;;;1.98;1.33;;;;;;;6.47;88.05;99221.19;5013438;28;20079;-83
2021/05/23 07:11:20;;;;;;;4.80;2.10;;;;;;;6.47;88.16;99234.53;5031385;28;20037;-84
2021/05/23 07:13:45;;;;;;;3.22;1.60;;;;;;;6.44;88.67;99202.88;5010966;28;20103;-82
2021/05/23 07:16:10;;;;;;;3.83;1.63;;;;;;;6.29;89.39;99186.88;5010306;28;20037;-83
2021/05/23 07:18:36;;;;;;;4.65;1.88;;;;;;;6.48;88.89;99214.81;5022573;28;20029;-84
2021/05/23 07:21:01;;;;;;;7.32;1.70;;;;;;;6.28;88.91;99187.06;5026019;28;20033;-84
2021/05/23 07:23:27;;;;;;;3.67;1.30;;;;;;;6.47;89.05;99207.81;5028093;28;20033;-83
2021/05/23 07:25:53;;;;;;;3.50;1.50;;;;;;;6.53;88.71;99212.41;5033579;28;20020;-84
2021/05/23 07:28:18;;;;;;;2.80;1.40;;;;;;;6.43;88.82;99182.53;5010894;28;20021;-83
2021/05/23 07:30:44;;;;;;;4.95;1.48;;;;;;;6.39;88.80;99176.72;5034936;28;20033;-82
2021/05/23 07:33:10;;;;;;;3.22;1.40;;;;;;;6.57;89.10;99183.50;5025573;28;20013;-84
2021/05/23 07:35:36;;;;;;;2.55;1.83;;;;;;;6.57;88.90;99179.00;5013882;28;20120;-84
2021/05/23 07:38:02;;;;;;;3.08;1.45;;;;;;;6.67;89.11;99175.16;5013184;28;20116;-84
2021/05/23 07:40:27;;;;;;;2.80;1.35;;;;;;;6.71;89.15;99171.13;5013828;28;20030;-82
2021/05/23 07:42:53;;;;;;;5.03;1.60;;;;;;;6.70;89.10;99175.63;5030755;28;20037;-83
2021/05/23 07:45:18;;;;;;;2.83;1.52;;;;;;;6.71;88.97;99176.47;5029447;28;20112;-84
2021/05/23 07:47:44;;;;;;;5.07;1.70;;;;;;;6.70;88.89;99174.81;5014590;28;20088;-84
2021/05/23 07:50:10;;;;;;;4.75;1.90;;;;;;;6.81;89.07;99185.00;5028222;28;20022;-83
2021/05/23 07:52:36;;;;;;;3.55;1.73;;;;;;;6.82;88.91;99182.13;5033292;28;20024;-83
2021/05/23 07:55:02;;;;;;;2.63;1.48;;;;;;;6.81;89.38;99175.13;5033775;28;20038;-84
2021/05/23 07:57:28;;;;;;;3.30;1.60;;;;;;;6.75;89.01;99172.41;5017164;28;20396;-83
2021/05/23 07:59:53;;;;;;;3.88;1.63;;;;;;;6.77;88.81;99181.03;5011003;28;21161;-83
2021/05/23 08:02:19;;;;;;;3.10;1.63;;;;;;;6.79;89.33;99184.34;5029806;28;20108;-83
2021/05/23 08:04:44;;;;;;;2.55;1.27;;;;;;;6.80;89.30;99181.50;5014936;28;20438;-83
2021/05/23 08:07:10;;;;;;;3.25;1.60;;;;;;;6.88;89.47;99177.03;5012079;28;20484;-84
2021/05/23 08:09:35;;;;;;;4.90;2.00;;;;;;;6.92;89.27;99179.13;5027549;28;20442;-84
2021/05/23 08:12:00;;;;;;;3.85;1.65;;;;;;;7.04;88.83;99174.13;5028680;28;20112;-83
2021/05/23 08:14:26;;;;;;;4.03;1.50;;;;;;;7.15;88.31;99188.81;5012343;28;20488;-84
2021/05/23 08:16:51;;;;;;;5.07;1.98;;;;;;;7.19;88.56;99184.72;5030813;28;20029;-83
2021/05/23 08:19:19;;;;;;;5.40;1.80;;;;;;;7.23;87.78;99176.13;5030698;28;20084;-84
2021/05/23 08:21:44;;;;;;;2.92;1.55;;;;;;;7.21;87.56;99163.97;5012048;28;20075;-84
2021/05/23 08:24:10;;;;;;;2.28;1.40;;;;;;;7.39;87.43;99191.06;5017094;28;20029;-83
2021/05/23 08:26:36;;;;;;;4.65;1.50;;;;;;;7.46;87.22;99186.59;5014760;28;20508;-84
2021/05/23 08:29:02;;;;;;;4.80;1.63;;;;;;;7.54;87.21;99187.47;5030929;28;20025;-83
2021/05/23 08:31:27;;;;;;;3.45;1.70;;;;;;;7.52;86.71;99173.47;5005214;28;20037;-84
2021/05/23 08:33:53;;;;;;;4.15;1.60;;;;;;;7.63;86.61;99178.28;5027884;28;20026;-83
2021/05/23 08:36:19;;;;;;;1.63;1.02;;;;;;;7.75;86.15;99190.06;5011480;28;20022;-84
2021/05/23 08:38:45;;;;;;;3.53;1.42;;;;;;;7.72;86.01;99179.78;5023756;28;20405;-84
2021/05/23 08:41:10;;;;;;;4.28;1.42;;;;;;;7.82;85.51;99190.97;5027802;28;20041;-84
2021/05/23 08:43:36;;;;;;;2.65;1.42;;;;;;;7.87;86.05;99188.53;5032214;28;20527;-84
2021/05/23 08:46:02;;;;;;;3.97;1.40;;;;;;;7.96;85.95;99183.00;5017141;28;20033;-83
2021/05/23 08:48:27;;;;;;;3.83;1.25;;;;;;;8.06;85.65;99186.16;5028748;28;20025;-84
2021/05/23 08:50:53;;;;;;;8.35;1.70;;;;;;;8.12;85.31;99190.69;5027672;28;20021;-84
2021/05/23 08:53:22;;;;;;;5.63;1.83;;;;;;;8.13;84.53;99174.47;5006914;28;20101;-84
2021/05/23 08:55:47;;;;;;;3.03;1.40;;;;;;;8.27;84.21;99172.66;5032644;28;20025;-84
2021/05/23 08:58:15;;;;;;;6.40;1.90;;;;;;;8.49;84.62;99188.63;5034861;28;20032;-84
2021/05/23 09:00:41;;;;;;;2.38;1.42;;;;;;;8.53;83.91;99182.69;5032855;28;20116;-84
2021/05/23 09:03:10;;;;;;;5.80;1.50;;;;;;;8.60;83.22;99166.63;5005492;28;20308;-84
2021/05/23 09:05:37;;;;;;;3.95;1.70;;;;;;;8.87;83.82;99174.75;5016785;28;20387;-84
2021/05/23 09:08:07;;;;;;;4.65;2.75;;;;;;;9.10;82.65;99188.56;5032029;28;20033;-84
2021/05/23 09:10:34;;;;;;;9.90;2.85;;;;;;;9.12;82.84;99170.41;5025186;28;20029;-83
2021/05/23 09:13:00;;;;;;;5.18;2.65;;;;;;;9.20;82.93;99183.63;5036575;28;20025;-84
2021/05/23 09:15:27;;;;;;;5.15;2.67;;;;;;;9.23;82.22;99171.66;5032430;28;20103;-83
2021/05/23 09:18:19;;;;;;;8.45;2.30;;;;;;;9.22;83.08;99161.97;5031490;28;20036;-84
2021/05/23 09:20:44;;;;;;;5.78;2.33;;;;;;;9.25;83.03;99174.97;5029721;28;20029;-83
2021/05/23 09:23:22;;;;;;;4.15;2.20;;;;;;;9.20;82.22;99188.16;5030116;28;20079;-84
2021/05/23 09:25:48;;;;;;;5.07;1.70;;;;;;;8.92;82.19;99169.59;5015633;28;20427;-84
2021/05/23 09:28:14;;;;;;;2.97;1.88;;;;;;;8.92;83.02;99185.69;5031274;28;20020;-84
2021/05/23 09:30:45;;;;;;;4.03;1.88;;;;;;;8.93;83.07;99180.09;5032000;28;20021;-84
2021/05/23 09:33:18;;;;;;;5.97;2.00;;;;;;;9.18;82.41;99180.34;5016288;28;20027;-84
2021/05/23 09:35:44;;;;;;;3.33;1.58;;;;;;;9.49;82.66;99170.84;5011450;28;20021;-84
2021/05/23 09:38:10;;;;;;;5.05;1.70;;;;;;;9.61;81.59;99154.94;5031130;28;20040;-83
2021/05/23 09:40:41;;;;;;;4.68;2.17;;;;;;;9.93;80.86;99153.22;5031913;28;20572;-84
2021/05/23 09:43:08;;;;;;;3.15;1.25;;;;;;;10.27;79.41;99148.56;5031359;28;20399;-84
2021/05/23 09:45:42;;;;;;;5.38;1.90;;;;;;;10.53;79.06;99143.09;5013147;28;20025;-84
2021/05/23 09:48:19;;;;;;;4.63;1.60;;;;;;;10.87;78.36;99143.69;5025828;28;20037;-84
2021/05/23 09:50:45;;;;;;;7.28;2.13;;;;;;;11.12;76.80;99138.34;5006753;28;20388;-84
2021/05/23 09:53:34;;;;;;;3.20;1.45;;;;;;;11.36;74.90;99139.38;5016723;28;20022;-84
2021/05/23 09:56:08;;;;;;;6.35;2.38;;;;;;;11.68;75.92;99139.31;5026534;28;20030;-84
2021/05/23 09:58:43;;;;;;;8.05;3.38;;;;;;;11.43;75.04;99117.78;5010840;28;20513;-84
2021/05/23 10:01:31;;;;;;;6.75;1.95;;;;;;;11.74;73.58;99122.25;5027126;28;20040;-85
2021/05/23 10:03:58;;;;;;;4.80;1.98;;;;;;;11.96;71.26;99122.69;5032449;28;20038;-85
2021/05/23 10:06:30;;;;;;;6.80;2.15;;;;;;;11.98;70.87;99115.16;5017251;28;20077;-83
2021/05/23 10:08:57;;;;;;;8.13;2.47;;;;;;;11.98;69.77;99108.97;5003108;28;20089;-84
2021/05/23 10:11:23;;;;;;;7.53;2.50;;;;;;;12.06;70.24;99112.16;5014830;28;20033;-84
2021/05/23 10:13:49;;;;;;;7.40;2.60;;;;;;;11.80;70.46;99099.81;5027866;28;20025;-84
2021/05/23 10:16:16;;;;;;;9.85;2.80;;;;;;;11.50;71.16;99106.97;5030283;28;20385;-84
2021/05/23 10:18:41;;;;;;;7.72;2.08;;;;;;;11.04;72.89;99094.78;5029462;28;20045;-83
2021/05/23 10:21:07;;;;;;;6.40;1.90;;;;;;;10.57;74.03;99074.41;5027970;28;20044;-83
2021/05/23 10:23:36;;;;;;;5.20;2.13;;;;;;;10.64;75.70;99071.69;5015767;28;20100;-86
2021/05/23 10:26:05;;;;;;;10.15;2.72;;;;;;;10.64;77.12;99095.03;5032037;28;20045;-84
2021/05/23 10:28:31;;;;;;;7.82;2.00;;;;;;;10.43;75.27;99094.34;5015682;28;20048;-83
2021/05/23 10:30:57;;;;;;;9.85;3.42;;;;;;;10.19;75.62;99113.84;5031578;28;20104;-83
2021/05/23 10:33:23;;;;;;;6.15;2.47;;;;;;;9.99;75.96;99116.63;5016427;28;20055;-84
2021/05/23 10:35:51;;;;;;;7.90;2.33;;;;;;;9.93;77.46;99112.94;5033485;28;20017;-85
2021/05/23 10:38:20;;;;;;;9.20;2.45;;;;;;;9.96;77.65;99109.81;5016662;28;20112;-85
2021/05/23 10:41:18;;;;;;;7.80;2.97;;;;;;;10.42;77.46;99102.63;5031483;28;20025;-84
2021/05/23 10:43:46;;;;;;;11.82;2.92;;;;;;;10.50;77.41;99087.06;5012039;28;20040;-84
2021/05/23 10:46:13;;;;;;;7.97;3.28;;;;;;;10.92;76.65;99110.78;5032458;28;20107;-84
2021/05/23 10:49:00;;;;;;;9.18;3.85;;;;;;;11.05;75.04;99105.28;5033228;28;20546;-84
2021/05/23 10:51:27;;;;;;;12.45;4.90;;;;;;;11.38;73.07;99101.50;5035812;28;20112;-83
2021/05/23 10:53:53;;;;;;;8.30;2.80;;;;;;;11.83;72.84;99103.94;5045841;28;20128;-83
2021/05/23 10:56:25;;;;;;;11.77;1.85;;;;;;;12.45;70.01;99103.81;5041159;28;20814;-84
2021/05/23 10:59:01;;;;;;;8.07;1.63;;;;;;;12.78;67.06;99092.56;5033361;28;20025;-84
2021/05/23 11:01:43;;;;;;;8.20;2.67;;;;;;;13.16;65.65;99094.03;5033666;28;20029;-84
2021/05/23 11:04:19;;;;;;;7.20;1.58;;;;;;;13.43;63.60;99075.50;5033679;28;20029;-84
2021/05/23 11:06:46;;;;;;;12.45;2.30;;;;;;;13.08;65.13;99065.50;5040165;28;20021;-84
2021/05/23 11:09:14;;;;;;;11.50;1.45;;;;;;;12.81;66.36;99070.50;5013264;28;20445;-84
2021/05/23 11:11:40;;;;;;;8.80;3.20;;;;;;;12.43;65.89;99071.69;5018107;28;20025;-84
2021/05/23 11:14:17;;;;;;;8.25;1.80;;;;;;;11.98;64.86;99072.06;5033088;28;20395;-84
2021/05/23 11:16:49;;;;;;;8.63;1.60;;;;;;;12.25;64.19;99064.50;5028471;28;20025;-85
2021/05/23 11:19:15;;;;;;;8.63;1.90;;;;;;;12.08;66.25;99060.78;5033977;28;20435;-84
2021/05/23 11:21:42;;;;;;;8.13;1.92;;;;;;;12.27;65.39;99070.44;5025627;28;20270;-84
2021/05/23 11:24:09;;;;;;;10.73;3.33;;;;;;;12.95;64.10;99060.31;5041590;28;20033;-84
2021/05/23 11:26:35;;;;;;;10.32;2.00;;;;;;;13.35;61.84;99055.09;5041764;28;20052;-84
2021/05/23 11:29:02;;;;;;;8.75;2.15;;;;;;;13.02;60.05;99055.66;5032561;28;20025;-83
2021/05/23 11:31:28;;;;;;;11.77;1.65;;;;;;;12.65;60.30;99071.16;5016102;28;20052;-83
2021/05/23 11:33:54;;;;;;;8.30;2.22;;;;;;;12.31;61.50;99060.88;5034139;28;20018;-84
2021/05/23 11:36:21;;;;;;;8.73;2.28;;;;;;;12.41;61.82;99060.31;5015725;28;20021;-84
2021/05/23 11:38:47;;;;;;;8.23;2.28;;;;;;;12.62;59.69;99056.28;5032200;28;20116;-84